»·PEaware :: N4877J KOXR-KSBP

N4877J :: KOXR-KSBP

FLIGHT INFORMATION

Flight Status: Arrived
Operator: Privately registered:
United States
More flights under this callsign
Pilot: Wesley G. (29645)
Aircraft: CESSNA 172 SKYHAWK
(C172)
More flights by this aircraft type
Origin: KOXR Oxnard
United States
Destination: KSBP San Luis Co Regl
United States
More flights between these airports :: More routes between these airports
Route: RZS MQO
File this flight plan on PilotEdge
Remarks:
Altitude:
(Current/Filed)
6,000ft
Speed:
(Current/Filed)
110kts
Departed: 19-Jan-21 05:55 PM
Arrived: 19-Jan-21 07:10 PM
Distance/Time
Traveled:
94nm/1:15
Distance/Time
To Go:
Arrived

Flight Plot

Page will automatically refresh every two minutes.

Flight plan parsing failed; only flown route is shown


Map Options




Map Legend


Flown Route
Filed Route
Departure Airport
Arrival Airport
Navaid (VOR, NDB)
Fix

Horizontal Profiles

Position Reports

Time Latitude Longitude Heading Altitude Ground
Speed
19-Jan-21 17:23 0.000408 0.013975 0 3ft 0kts
19-Jan-21 17:24 34.199325 -119.205797 180 39ft 0kts
19-Jan-21 17:25 34.199319 -119.205797 180 46ft 0kts
19-Jan-21 17:26 34.199319 -119.205797 180 46ft 0kts
19-Jan-21 17:27 34.199319 -119.205797 180 46ft 0kts
19-Jan-21 17:28 34.199319 -119.205797 180 46ft 0kts
19-Jan-21 17:29 34.199319 -119.205797 180 46ft 0kts
19-Jan-21 17:30 34.199319 -119.205797 180 46ft 0kts
19-Jan-21 17:31 34.199319 -119.205797 180 46ft 0kts
19-Jan-21 17:32 34.199319 -119.205797 180 46ft 0kts
19-Jan-21 17:33 34.199319 -119.205797 180 46ft 0kts
19-Jan-21 17:34 34.199319 -119.205797 180 46ft 0kts
19-Jan-21 17:35 34.199319 -119.205797 180 46ft 0kts
19-Jan-21 17:36 34.199319 -119.205797 180 46ft 0kts
19-Jan-21 17:37 34.199319 -119.205797 180 46ft 0kts
19-Jan-21 17:38 34.199319 -119.205797 180 46ft 0kts
19-Jan-21 17:39 34.199319 -119.205797 180 46ft 0kts
19-Jan-21 17:40 34.199319 -119.205797 180 46ft 0kts
19-Jan-21 17:41 34.199319 -119.205797 180 46ft 0kts
19-Jan-21 17:42 34.199319 -119.205797 180 46ft 0kts
19-Jan-21 17:43 34.199319 -119.205797 180 46ft 0kts
19-Jan-21 17:44 34.199319 -119.205797 180 46ft 0kts
19-Jan-21 17:45 34.199319 -119.205797 180 46ft 0kts
19-Jan-21 17:46 34.199319 -119.205797 180 46ft 0kts
19-Jan-21 17:47 34.199319 -119.205797 180 46ft 0kts
19-Jan-21 17:48 34.199777 -119.207241 276 46ft 13kts
19-Jan-21 17:49 34.199856 -119.214028 272 34ft 22kts
19-Jan-21 17:50 34.199883 -119.216550 276 35ft 0kts
19-Jan-21 17:51 34.200012 -119.216906 339 35ft 0kts
19-Jan-21 17:52 34.200676 -119.216909 9 35ft 10kts
19-Jan-21 17:53 34.200882 -119.216672 84 35ft 0kts
19-Jan-21 17:54 34.200696 -119.210259 85 112ft 62kts
19-Jan-21 17:55 34.199168 -119.190417 86 927ft 61kts
19-Jan-21 17:56 34.206817 -119.191672 298 1655ft 94kts
19-Jan-21 17:57 34.215226 -119.221784 292 2434ft 95kts
19-Jan-21 17:58 34.223961 -119.252786 297 3145ft 99kts
19-Jan-21 17:59 34.235594 -119.283732 300 3808ft 101kts
19-Jan-21 18:00 34.247157 -119.316457 305 4437ft 107kts
19-Jan-21 18:01 34.262088 -119.348485 308 5046ft 110kts
19-Jan-21 18:02 34.276271 -119.382964 303 5598ft 117kts
19-Jan-21 18:03 34.290964 -119.419512 307 5957ft 128kts
19-Jan-21 18:04 34.309618 -119.458253 313 5922ft 137kts
19-Jan-21 18:05 34.332324 -119.493165 323 5964ft 132kts
19-Jan-21 18:06 34.355666 -119.527903 319 5972ft 133kts
19-Jan-21 18:07 34.380684 -119.559318 329 5998ft 127kts
19-Jan-21 18:09 34.406183 -119.589439 321 6016ft 129kts
19-Jan-21 18:10 34.429819 -119.622446 315 5998ft 130kts
19-Jan-21 18:11 34.450450 -119.658544 303 6005ft 132kts
19-Jan-21 18:12 34.467194 -119.697960 303 5967ft 130kts
19-Jan-21 18:13 34.484062 -119.736017 302 6051ft 120kts
19-Jan-21 18:14 34.499732 -119.772748 302 5973ft 119kts
19-Jan-21 18:15 34.516062 -119.807188 310 6129ft 109kts
19-Jan-21 18:16 34.533512 -119.831645 326 6063ft 91kts
19-Jan-21 18:17 34.552552 -119.853818 325 6090ft 101kts
19-Jan-21 18:18 34.573269 -119.878401 319 6125ft 109kts
19-Jan-21 18:19 34.594193 -119.903614 324 6188ft 106kts
19-Jan-21 18:20 34.615701 -119.928038 325 6241ft 96kts
19-Jan-21 18:21 34.632818 -119.948880 323 6260ft 81kts
19-Jan-21 18:21 34.644164 -119.967676 300 6054ft 86kts
19-Jan-21 18:23 34.658110 -119.992274 317 5957ft 68kts
19-Jan-21 18:24 34.671663 -120.008433 330 5943ft 67kts
19-Jan-21 18:24 34.683669 -120.020288 327 5971ft 67kts
19-Jan-21 18:26 34.699299 -120.038814 320 5932ft 69kts
19-Jan-21 18:26 34.710642 -120.051799 331 5972ft 65kts
19-Jan-21 18:27 34.723984 -120.065719 321 5984ft 63kts
19-Jan-21 18:28 34.734956 -120.081075 320 5986ft 61kts
19-Jan-21 18:29 34.747758 -120.096209 322 5973ft 65kts
19-Jan-21 18:30 34.760696 -120.111834 327 5986ft 62kts
19-Jan-21 18:31 34.773531 -120.127872 318 5987ft 69kts
19-Jan-21 18:32 34.784700 -120.146756 314 5985ft 69kts
19-Jan-21 18:33 34.796578 -120.164826 323 5979ft 68kts
19-Jan-21 18:34 34.810833 -120.179160 338 5982ft 63kts
19-Jan-21 18:35 34.826374 -120.188030 323 6028ft 69kts
19-Jan-21 18:36 34.834646 -120.210393 310 6066ft 72kts
19-Jan-21 18:37 34.849769 -120.222777 349 6100ft 65kts
19-Jan-21 18:38 34.860849 -120.242725 314 6088ft 73kts
19-Jan-21 18:39 34.872994 -120.262331 316 6092ft 73kts
19-Jan-21 18:40 34.886878 -120.279532 332 6087ft 70kts
19-Jan-21 18:41 34.902031 -120.294341 332 6009ft 71kts
19-Jan-21 18:42 34.916687 -120.310384 327 6136ft 68kts
19-Jan-21 18:43 34.930598 -120.321342 77 6010ft 42kts
19-Jan-21 18:44 34.924493 -120.331902 312 5868ft 72kts
19-Jan-21 18:45 34.928812 -120.329186 155 5871ft 51kts
19-Jan-21 18:46 34.930798 -120.342004 42 5947ft 48kts
19-Jan-21 18:47 34.940682 -120.332744 58 6009ft 42kts
19-Jan-21 18:48 34.953163 -120.327484 341 5920ft 68kts
19-Jan-21 18:49 34.949506 -120.341196 119 5980ft 41kts
19-Jan-21 18:50 34.957243 -120.338797 305 6071ft 76kts
19-Jan-21 18:51 34.956808 -120.347805 295 6141ft 82kts
19-Jan-21 18:52 34.968777 -120.358994 113 6219ft 40kts
19-Jan-21 18:53 34.972647 -120.377178 313 6223ft 79kts
19-Jan-21 18:54 34.989158 -120.400590 322 5910ft 107kts
19-Jan-21 18:55 35.008556 -120.427123 321 5636ft 118kts
19-Jan-21 18:56 35.031105 -120.459725 315 5429ft 132kts
19-Jan-21 18:57 35.052860 -120.493933 314 5210ft 124kts
19-Jan-21 18:58 35.074725 -120.526825 322 4954ft 124kts
19-Jan-21 18:59 35.098583 -120.556111 327 4459ft 120kts
19-Jan-21 19:00 35.122653 -120.583932 328 3984ft 119kts
19-Jan-21 19:01 35.148124 -120.607788 339 3246ft 111kts
19-Jan-21 19:02 35.174026 -120.624883 344 2408ft 102kts
19-Jan-21 19:03 35.200186 -120.634847 347 1771ft 92kts
19-Jan-21 19:04 35.221561 -120.655335 305 1099ft 109kts
19-Jan-21 19:05 35.237993 -120.683851 325 1195ft 88kts
19-Jan-21 19:06 35.256050 -120.678687 83 720ft 65kts
19-Jan-21 19:07 35.249580 -120.662605 123 511ft 54kts
19-Jan-21 19:08 35.239857 -120.645454 121 184ft 46kts
19-Jan-21 19:09 35.237789 -120.640434 85 193ft 0kts
19-Jan-21 19:10 35.238116 -120.640052 277 193ft 10kts
19-Jan-21 19:11 35.238353 -120.640370 287 192ft 0kts
19-Jan-21 19:12 35.238353 -120.640370 287 192ft 0kts
19-Jan-21 19:13 35.238338 -120.640451 238 192ft 0kts
19-Jan-21 19:14 35.237530 -120.638296 103 197ft 14kts
19-Jan-21 19:15 35.236247 -120.635995 36 204ft 0kts

Navigation Log

Ident Type
Flight plan parsing failed, navigation log unavailable